sensor_id;sensor_type;location;lat;lon;timestamp;pressure;altitude;pressure_sealevel;temperature;humidity
56658;BME280;42530;52.240;19.354;2022-08-18T00:01:20;53040.41;;;-144.69;67.50
56658;BME280;42530;52.240;19.354;2022-08-18T00:03:48;53065.34;;;-144.69;67.55
56658;BME280;42530;52.240;19.354;2022-08-18T00:06:14;53086.16;;;-144.69;67.13
56658;BME280;42530;52.240;19.354;2022-08-18T00:08:40;53040.41;;;-144.69;67.39
56658;BME280;42530;52.240;19.354;2022-08-18T00:11:05;53042.47;;;-144.69;67.10
56658;BME280;42530;52.240;19.354;2022-08-18T00:13:31;53063.28;;;-144.69;66.94
56658;BME280;42530;52.240;19.354;2022-08-18T00:15:56;53048.72;;;-144.69;66.72
56658;BME280;42530;52.240;19.354;2022-08-18T00:18:22;53073.69;;;-144.69;66.78
56658;BME280;42530;52.240;19.354;2022-08-18T00:20:47;53075.75;;;-144.69;66.52
56658;BME280;42530;52.240;19.354;2022-08-18T00:23:13;53057.03;;;-144.69;66.40
56658;BME280;42530;52.240;19.354;2022-08-18T00:25:39;53042.47;;;-144.69;66.29
56658;BME280;42530;52.240;19.354;2022-08-18T00:28:05;53032.06;;;-144.69;66.39
56658;BME280;42530;52.240;19.354;2022-08-18T00:30:32;53032.06;;;-144.69;66.70
56658;BME280;42530;52.240;19.354;2022-08-18T00:32:58;53040.41;;;-144.69;66.45
56658;BME280;42530;52.240;19.354;2022-08-18T00:35:31;53065.34;;;-144.69;66.52
56658;BME280;42530;52.240;19.354;2022-08-18T00:38:00;53069.53;;;-144.69;66.59
56658;BME280;42530;52.240;19.354;2022-08-18T00:40:30;53019.59;;;-144.69;66.53
56658;BME280;42530;52.240;19.354;2022-08-18T00:43:00;53044.56;;;-144.69;66.83
56658;BME280;42530;52.240;19.354;2022-08-18T00:45:33;53090.31;;;-144.69;66.79
56658;BME280;42530;52.240;19.354;2022-08-18T00:48:04;53057.03;;;-144.69;66.79
56658;BME280;42530;52.240;19.354;2022-08-18T00:50:49;53048.72;;;-144.69;67.05
56658;BME280;42530;52.240;19.354;2022-08-18T00:53:21;53044.56;;;-144.69;67.22
56658;BME280;42530;52.240;19.354;2022-08-18T00:55:49;53044.56;;;-144.69;67.26
56658;BME280;42530;52.240;19.354;2022-08-18T00:58:19;53044.56;;;-144.69;67.40
56658;BME280;42530;52.240;19.354;2022-08-18T01:00:48;53007.09;;;-144.69;67.53
56658;BME280;42530;52.240;19.354;2022-08-18T01:03:16;53073.69;;;-144.69;67.55
56658;BME280;42530;52.240;19.354;2022-08-18T01:06:04;53069.53;;;-144.69;67.69
56658;BME280;42530;52.240;19.354;2022-08-18T01:08:31;53063.28;;;-144.69;67.68
56658;BME280;42530;52.240;19.354;2022-08-18T01:10:59;53052.88;;;-144.69;67.85
56658;BME280;42530;52.240;19.354;2022-08-18T01:13:28;53050.78;;;-144.69;67.67
56658;BME280;42530;52.240;19.354;2022-08-18T01:15:55;53061.19;;;-144.69;67.61
56658;BME280;42530;52.240;19.354;2022-08-18T01:18:21;53059.13;;;-144.69;67.74
56658;BME280;42530;52.240;19.354;2022-08-18T01:21:22;53065.34;;;-144.69;67.84
56658;BME280;42530;52.240;19.354;2022-08-18T01:24:10;53079.91;;;-144.69;67.80
56658;BME280;42530;52.240;19.354;2022-08-18T01:26:39;53044.56;;;-144.69;67.66
56658;BME280;42530;52.240;19.354;2022-08-18T01:29:15;53094.47;;;-144.69;67.92
56658;BME280;42530;52.240;19.354;2022-08-18T01:31:45;53052.88;;;-144.69;67.86
56658;BME280;42530;52.240;19.354;2022-08-18T01:34:14;53077.84;;;-144.69;68.06
56658;BME280;42530;52.240;19.354;2022-08-18T01:36:41;53082.00;;;-144.69;68.31
56658;BME280;42530;52.240;19.354;2022-08-18T01:39:09;53048.72;;;-144.69;68.33
56658;BME280;42530;52.240;19.354;2022-08-18T01:41:35;53094.47;;;-144.69;68.47
56658;BME280;42530;52.240;19.354;2022-08-18T01:44:02;53075.75;;;-144.69;68.41
56658;BME280;42530;52.240;19.354;2022-08-18T01:46:30;53044.56;;;-144.69;68.69
56658;BME280;42530;52.240;19.354;2022-08-18T01:48:58;53067.44;;;-144.69;69.09
56658;BME280;42530;52.240;19.354;2022-08-18T01:51:26;53048.72;;;-144.69;69.31
56658;BME280;42530;52.240;19.354;2022-08-18T01:53:53;53059.13;;;-144.69;69.45
56658;BME280;42530;52.240;19.354;2022-08-18T01:56:18;53032.06;;;-144.69;69.38
56658;BME280;42530;52.240;19.354;2022-08-18T01:58:44;53044.56;;;-144.69;69.42
56658;BME280;42530;52.240;19.354;2022-08-18T02:01:15;53102.81;;;-144.69;69.58
56658;BME280;42530;52.240;19.354;2022-08-18T02:03:46;53086.16;;;-144.69;69.52
56658;BME280;42530;52.240;19.354;2022-08-18T02:06:14;53096.56;;;-144.69;69.68
56658;BME280;42530;52.240;19.354;2022-08-18T02:08:44;53065.34;;;-144.69;69.87
56658;BME280;42530;52.240;19.354;2022-08-18T02:11:09;53090.31;;;-144.69;69.99
56658;BME280;42530;52.240;19.354;2022-08-18T02:13:35;53048.72;;;-144.69;69.85
56658;BME280;42530;52.240;19.354;2022-08-18T02:16:01;53065.34;;;-144.69;70.14
56658;BME280;42530;52.240;19.354;2022-08-18T02:18:29;53054.97;;;-144.69;69.83
56658;BME280;42530;52.240;19.354;2022-08-18T02:20:57;53065.34;;;-144.69;69.78
56658;BME280;42530;52.240;19.354;2022-08-18T02:23:24;53044.56;;;-144.69;69.98
56658;BME280;42530;52.240;19.354;2022-08-18T02:25:50;53048.72;;;-144.69;70.17
56658;BME280;42530;52.240;19.354;2022-08-18T02:28:15;53086.16;;;-144.69;70.47
56658;BME280;42530;52.240;19.354;2022-08-18T02:30:41;53069.53;;;-144.69;70.33
56658;BME280;42530;52.240;19.354;2022-08-18T02:33:09;53102.81;;;-144.69;69.98
56658;BME280;42530;52.240;19.354;2022-08-18T02:35:35;53069.53;;;-144.69;69.74
56658;BME280;42530;52.240;19.354;2022-08-18T02:38:02;53113.22;;;-144.69;69.72
56658;BME280;42530;52.240;19.354;2022-08-18T02:40:28;53140.25;;;-144.69;69.77
56658;BME280;42530;52.240;19.354;2022-08-18T02:42:54;53075.75;;;-144.69;70.01
56658;BME280;42530;52.240;19.354;2022-08-18T02:45:21;53065.34;;;-144.69;70.01
56658;BME280;42530;52.240;19.354;2022-08-18T02:47:53;53082.00;;;-144.69;70.15
56658;BME280;42530;52.240;19.354;2022-08-18T02:50:20;53092.41;;;-144.69;70.18
56658;BME280;42530;52.240;19.354;2022-08-18T02:52:46;53071.59;;;-144.69;70.43
56658;BME280;42530;52.240;19.354;2022-08-18T02:55:12;53054.97;;;-144.69;70.43
56658;BME280;42530;52.240;19.354;2022-08-18T02:57:45;53098.66;;;-144.69;70.42
56658;BME280;42530;52.240;19.354;2022-08-18T03:00:13;53048.72;;;-144.69;70.34
56658;BME280;42530;52.240;19.354;2022-08-18T03:02:44;53077.84;;;-144.69;70.36
56658;BME280;42530;52.240;19.354;2022-08-18T03:05:10;53065.34;;;-144.69;70.16
56658;BME280;42530;52.240;19.354;2022-08-18T03:07:35;53075.75;;;-144.69;70.03
56658;BME280;42530;52.240;19.354;2022-08-18T03:10:00;53077.84;;;-144.69;70.18
56658;BME280;42530;52.240;19.354;2022-08-18T03:12:26;53077.84;;;-144.69;70.29
56658;BME280;42530;52.240;19.354;2022-08-18T03:14:51;53069.53;;;-144.69;70.24
56658;BME280;42530;52.240;19.354;2022-08-18T03:17:17;53069.53;;;-144.69;70.27
56658;BME280;42530;52.240;19.354;2022-08-18T03:19:42;53104.88;;;-144.69;70.15
56658;BME280;42530;52.240;19.354;2022-08-18T03:22:11;53092.41;;;-144.69;70.08
56658;BME280;42530;52.240;19.354;2022-08-18T03:24:36;53086.16;;;-144.69;70.12
56658;BME280;42530;52.240;19.354;2022-08-18T03:27:06;53098.66;;;-144.69;69.98
56658;BME280;42530;52.240;19.354;2022-08-18T03:29:33;53096.56;;;-144.69;69.84
56658;BME280;42530;52.240;19.354;2022-08-18T03:32:03;53115.28;;;-144.69;69.61
56658;BME280;42530;52.240;19.354;2022-08-18T03:34:29;53069.53;;;-144.69;69.69
56658;BME280;42530;52.240;19.354;2022-08-18T03:36:55;53092.41;;;-144.69;69.76
56658;BME280;42530;52.240;19.354;2022-08-18T03:39:21;53079.91;;;-144.69;69.69
56658;BME280;42530;52.240;19.354;2022-08-18T03:41:52;53100.72;;;-144.69;69.56
56658;BME280;42530;52.240;19.354;2022-08-18T03:44:19;53086.16;;;-144.69;69.60
56658;BME280;42530;52.240;19.354;2022-08-18T03:46:46;53090.31;;;-144.69;69.69
56658;BME280;42530;52.240;19.354;2022-08-18T03:49:12;53104.88;;;-144.69;69.54
56658;BME280;42530;52.240;19.354;2022-08-18T03:51:41;53069.53;;;-144.69;69.48
56658;BME280;42530;52.240;19.354;2022-08-18T03:54:08;53096.56;;;-144.69;69.51
56658;BME280;42530;52.240;19.354;2022-08-18T03:56:36;53065.34;;;-144.69;69.36
56658;BME280;42530;52.240;19.354;2022-08-18T03:59:07;53106.97;;;-144.69;69.44
56658;BME280;42530;52.240;19.354;2022-08-18T04:01:37;53123.63;;;-144.69;69.18
56658;BME280;42530;52.240;19.354;2022-08-18T04:04:06;53115.28;;;-144.69;68.96
56658;BME280;42530;52.240;19.354;2022-08-18T04:06:34;53113.22;;;-144.69;68.91
56658;BME280;42530;52.240;19.354;2022-08-18T04:09:03;53071.59;;;-144.69;68.52
56658;BME280;42530;52.240;19.354;2022-08-18T04:11:33;53111.13;;;-144.69;68.49
56658;BME280;42530;52.240;19.354;2022-08-18T04:13:59;53115.28;;;-144.69;68.41
56658;BME280;42530;52.240;19.354;2022-08-18T04:16:25;53077.84;;;-144.69;68.24
56658;BME280;42530;52.240;19.354;2022-08-18T04:18:52;53075.75;;;-144.69;68.26
56658;BME280;42530;52.240;19.354;2022-08-18T04:21:18;53092.41;;;-144.69;68.10
56658;BME280;42530;52.240;19.354;2022-08-18T04:23:43;53086.16;;;-144.69;68.01
56658;BME280;42530;52.240;19.354;2022-08-18T04:26:09;53075.75;;;-144.69;68.06
56658;BME280;42530;52.240;19.354;2022-08-18T04:28:36;53090.31;;;-144.69;67.79
56658;BME280;42530;52.240;19.354;2022-08-18T04:31:07;53086.16;;;-144.69;67.68
56658;BME280;42530;52.240;19.354;2022-08-18T04:33:33;53090.31;;;-144.69;67.50
56658;BME280;42530;52.240;19.354;2022-08-18T04:36:06;53094.47;;;-144.69;67.40
56658;BME280;42530;52.240;19.354;2022-08-18T04:38:32;53077.84;;;-144.69;67.22
56658;BME280;42530;52.240;19.354;2022-08-18T04:40:58;53123.63;;;-144.69;66.79
56658;BME280;42530;52.240;19.354;2022-08-18T04:43:23;53119.44;;;-144.69;66.57
56658;BME280;42530;52.240;19.354;2022-08-18T04:45:49;53129.84;;;-144.69;66.16
56658;BME280;42530;52.240;19.354;2022-08-18T04:48:15;53079.91;;;-144.69;66.16
56658;BME280;42530;52.240;19.354;2022-08-18T04:50:41;53106.97;;;-144.69;65.92
56658;BME280;42530;52.240;19.354;2022-08-18T04:53:07;53127.78;;;-144.69;65.39
56658;BME280;42530;52.240;19.354;2022-08-18T04:55:53;53073.69;;;-144.69;65.16
56658;BME280;42530;52.240;19.354;2022-08-18T04:58:21;53102.81;;;-144.69;65.35
56658;BME280;42530;52.240;19.354;2022-08-18T05:00:57;53111.13;;;-144.69;64.72
56658;BME280;42530;52.240;19.354;2022-08-18T05:03:23;53138.19;;;-144.69;64.32
56658;BME280;42530;52.240;19.354;2022-08-18T05:05:55;53079.91;;;-144.69;63.96
56658;BME280;42530;52.240;19.354;2022-08-18T05:08:23;53119.44;;;-144.69;63.57
56658;BME280;42530;52.240;19.354;2022-08-18T05:10:54;53098.66;;;-144.69;63.31
56658;BME280;42530;52.240;19.354;2022-08-18T05:13:19;53102.81;;;-144.69;63.15
56658;BME280;42530;52.240;19.354;2022-08-18T05:15:51;53094.47;;;-144.69;62.88
56658;BME280;42530;52.240;19.354;2022-08-18T05:18:16;53094.47;;;-144.69;62.37
56658;BME280;42530;52.240;19.354;2022-08-18T05:20:44;53073.69;;;-144.69;62.25
56658;BME280;42530;52.240;19.354;2022-08-18T05:23:10;53113.22;;;-144.69;61.60
56658;BME280;42530;52.240;19.354;2022-08-18T05:25:35;53115.28;;;-144.69;61.49
56658;BME280;42530;52.240;19.354;2022-08-18T05:28:04;53098.66;;;-144.69;61.29
56658;BME280;42530;52.240;19.354;2022-08-18T05:30:30;53086.16;;;-144.69;60.86
56658;BME280;42530;52.240;19.354;2022-08-18T05:32:55;53061.19;;;-144.69;60.50
56658;BME280;42530;52.240;19.354;2022-08-18T05:35:27;53100.72;;;-144.69;60.20
56658;BME280;42530;52.240;19.354;2022-08-18T05:40:42;53090.31;;;-144.69;59.08
56658;BME280;42530;52.240;19.354;2022-08-18T05:43:11;53082.00;;;-144.69;58.88
56658;BME280;42530;52.240;19.354;2022-08-18T05:45:40;53127.78;;;-144.69;58.59
56658;BME280;42530;52.240;19.354;2022-08-18T05:48:05;53119.44;;;-144.69;58.44
56658;BME280;42530;52.240;19.354;2022-08-18T05:50:33;53086.16;;;-144.69;58.15
56658;BME280;42530;52.240;19.354;2022-08-18T05:53:11;53092.41;;;-144.69;57.70
56658;BME280;42530;52.240;19.354;2022-08-18T05:55:43;53069.53;;;-144.69;57.70
56658;BME280;42530;52.240;19.354;2022-08-18T05:58:50;53104.88;;;-144.69;56.96
56658;BME280;42530;52.240;19.354;2022-08-18T06:01:24;53106.97;;;-144.69;57.01
56658;BME280;42530;52.240;19.354;2022-08-18T06:04:00;53106.97;;;-144.69;57.05
56658;BME280;42530;52.240;19.354;2022-08-18T06:06:27;53094.47;;;-144.69;56.39
56658;BME280;42530;52.240;19.354;2022-08-18T06:09:18;53082.00;;;-144.69;56.61
56658;BME280;42530;52.240;19.354;2022-08-18T06:11:47;53090.31;;;-144.69;56.76
56658;BME280;42530;52.240;19.354;2022-08-18T06:14:13;53111.13;;;-144.69;56.28
56658;BME280;42530;52.240;19.354;2022-08-18T06:21:52;53082.00;;;-144.69;55.92
56658;BME280;42530;52.240;19.354;2022-08-18T06:24:37;53111.13;;;-144.69;55.65
56658;BME280;42530;52.240;19.354;2022-08-18T06:27:27;53100.72;;;-144.69;55.29
56658;BME280;42530;52.240;19.354;2022-08-18T06:32:51;53090.31;;;-144.69;54.76
56658;BME280;42530;52.240;19.354;2022-08-18T06:41:20;53131.94;;;-144.69;53.20
56658;BME280;42530;52.240;19.354;2022-08-18T06:44:07;53117.38;;;-144.69;53.42
56658;BME280;42530;52.240;19.354;2022-08-18T06:46:45;53111.13;;;-144.69;53.29
56658;BME280;42530;52.240;19.354;2022-08-18T06:49:42;53138.19;;;-144.69;53.26
56658;BME280;42530;52.240;19.354;2022-08-18T06:52:31;53131.94;;;-144.69;52.98
56658;BME280;42530;52.240;19.354;2022-08-18T06:55:00;53090.31;;;-144.69;53.03
56658;BME280;42530;52.240;19.354;2022-08-18T06:57:38;53117.38;;;-144.69;52.26
56658;BME280;42530;52.240;19.354;2022-08-18T07:00:21;53121.53;;;-144.69;51.53
56658;BME280;42530;52.240;19.354;2022-08-18T07:02:52;53127.78;;;-144.69;51.22
56658;BME280;42530;52.240;19.354;2022-08-18T07:05:28;53158.97;;;-144.69;50.73
56658;BME280;42530;52.240;19.354;2022-08-18T07:11:35;53117.38;;;-144.69;50.13
56658;BME280;42530;52.240;19.354;2022-08-18T07:14:21;53121.53;;;-144.69;50.47
56658;BME280;42530;52.240;19.354;2022-08-18T07:16:47;53136.09;;;-144.69;50.54
56658;BME280;42530;52.240;19.354;2022-08-18T07:19:15;53129.84;;;-144.69;50.24
56658;BME280;42530;52.240;19.354;2022-08-18T07:21:43;53156.91;;;-144.69;50.32
56658;BME280;42530;52.240;19.354;2022-08-18T07:27:21;53113.22;;;-144.69;49.05
56658;BME280;42530;52.240;19.354;2022-08-18T07:30:25;53148.56;;;-144.69;48.36
56658;BME280;42530;52.240;19.354;2022-08-18T07:33:14;53121.53;;;-144.69;48.20
56658;BME280;42530;52.240;19.354;2022-08-18T07:36:01;53152.75;;;-144.69;47.27
56658;BME280;42530;52.240;19.354;2022-08-18T07:38:35;53146.50;;;-144.69;46.65
56658;BME280;42530;52.240;19.354;2022-08-18T07:41:18;53169.38;;;-144.69;46.82
56658;BME280;42530;52.240;19.354;2022-08-18T07:46:40;53146.50;;;-144.69;46.03
56658;BME280;42530;52.240;19.354;2022-08-18T07:49:09;53136.09;;;-144.69;44.89
56658;BME280;42530;52.240;19.354;2022-08-18T07:54:29;53150.66;;;-144.69;43.94
56658;BME280;42530;52.240;19.354;2022-08-18T07:57:05;53165.22;;;-144.69;43.80
56658;BME280;42530;52.240;19.354;2022-08-18T08:07:24;53161.06;;;-144.69;41.70
56658;BME280;42530;52.240;19.354;2022-08-18T08:10:00;53123.63;;;-144.69;41.99
56658;BME280;42530;52.240;19.354;2022-08-18T08:12:47;53171.47;;;-144.69;41.43
56658;BME280;42530;52.240;19.354;2022-08-18T08:15:47;53161.06;;;-144.69;39.83
56658;BME280;42530;52.240;19.354;2022-08-18T08:21:06;53163.13;;;-144.69;39.90
56658;BME280;42530;52.240;19.354;2022-08-18T08:26:24;53165.22;;;-144.69;40.19
56658;BME280;42530;52.240;19.354;2022-08-18T08:29:15;53117.38;;;-144.69;39.88
56658;BME280;42530;52.240;19.354;2022-08-18T08:31:47;53165.22;;;-144.69;39.43
56658;BME280;42530;52.240;19.354;2022-08-18T08:34:25;53165.22;;;-144.69;38.24
56658;BME280;42530;52.240;19.354;2022-08-18T08:37:01;53098.66;;;-144.69;37.92
56658;BME280;42530;52.240;19.354;2022-08-18T08:42:08;53111.13;;;-144.69;38.56
56658;BME280;42530;52.240;19.354;2022-08-18T08:44:50;53125.69;;;-144.69;37.57
56658;BME280;42530;52.240;19.354;2022-08-18T08:47:24;53125.69;;;-144.69;37.34
56658;BME280;42530;52.240;19.354;2022-08-18T08:49:56;53152.75;;;-144.69;36.89
56658;BME280;42530;52.240;19.354;2022-08-18T08:52:33;53140.25;;;-144.69;37.62
56658;BME280;42530;52.240;19.354;2022-08-18T08:55:15;53142.34;;;-144.69;36.28
56658;BME280;42530;52.240;19.354;2022-08-18T08:57:46;53109.06;;;-144.69;35.40
56658;BME280;42530;52.240;19.354;2022-08-18T09:00:13;53113.22;;;-144.69;35.39
56658;BME280;42530;52.240;19.354;2022-08-18T09:05:29;53098.66;;;-144.69;32.71
56658;BME280;42530;52.240;19.354;2022-08-18T09:08:08;53102.81;;;-144.69;32.10
56658;BME280;42530;52.240;19.354;2022-08-18T09:15:54;53094.47;;;-144.69;31.12
56658;BME280;42530;52.240;19.354;2022-08-18T09:18:45;53069.53;;;-144.69;30.81
56658;BME280;42530;52.240;19.354;2022-08-18T09:24:19;53104.88;;;-144.69;30.65
56658;BME280;42530;52.240;19.354;2022-08-18T09:26:53;53154.81;;;-144.69;30.22
56658;BME280;42530;52.240;19.354;2022-08-18T09:29:46;53125.69;;;-144.69;29.50
56658;BME280;42530;52.240;19.354;2022-08-18T09:40:14;53094.47;;;-144.69;26.38
56658;BME280;42530;52.240;19.354;2022-08-18T09:43:13;53102.81;;;-144.69;26.95
56658;BME280;42530;52.240;19.354;2022-08-18T09:50:52;53125.69;;;-144.69;28.48
56658;BME280;42530;52.240;19.354;2022-08-18T09:56:02;53015.44;;;-144.69;27.69
56658;BME280;42530;52.240;19.354;2022-08-18T10:06:42;53121.53;;;-144.69;28.20
56658;BME280;42530;52.240;19.354;2022-08-18T10:14:33;53021.66;;;-144.69;29.90
56658;BME280;42530;52.240;19.354;2022-08-18T10:22:42;53088.25;;;-144.69;28.43
56658;BME280;42530;52.240;19.354;2022-08-18T10:25:10;53061.19;;;-144.69;27.07
56658;BME280;42530;52.240;19.354;2022-08-18T10:32:58;53092.41;;;-144.69;25.31
56658;BME280;42530;52.240;19.354;2022-08-18T10:38:03;53077.84;;;-144.69;25.62
56658;BME280;42530;52.240;19.354;2022-08-18T10:40:31;53069.53;;;-144.69;25.00
56658;BME280;42530;52.240;19.354;2022-08-18T10:45:36;53059.13;;;-144.69;25.84
56658;BME280;42530;52.240;19.354;2022-08-18T10:48:22;53088.25;;;-144.69;25.97
56658;BME280;42530;52.240;19.354;2022-08-18T10:51:02;53073.69;;;-144.69;25.81
56658;BME280;42530;52.240;19.354;2022-08-18T10:53:53;52990.47;;;-144.69;26.58
56658;BME280;42530;52.240;19.354;2022-08-18T11:01:58;53090.31;;;-144.69;26.48
56658;BME280;42530;52.240;19.354;2022-08-18T11:04:46;53038.31;;;-144.69;26.19
56658;BME280;42530;52.240;19.354;2022-08-18T11:09:46;53086.16;;;-144.69;26.58
56658;BME280;42530;52.240;19.354;2022-08-18T11:12:14;53013.34;;;-144.69;26.38
56658;BME280;42530;52.240;19.354;2022-08-18T11:19:55;53023.75;;;-144.69;26.90
56658;BME280;42530;52.240;19.354;2022-08-18T11:22:31;53115.28;;;-144.69;27.98
56658;BME280;42530;52.240;19.354;2022-08-18T11:24:57;53069.53;;;-144.69;26.03
56658;BME280;42530;52.240;19.354;2022-08-18T11:27:33;53061.19;;;-144.69;24.99
56658;BME280;42530;52.240;19.354;2022-08-18T11:30:04;52994.63;;;-144.69;26.08
56658;BME280;42530;52.240;19.354;2022-08-18T11:32:33;52965.50;;;-144.69;27.11
56658;BME280;42530;52.240;19.354;2022-08-18T11:40:24;53063.28;;;-144.69;27.11
56658;BME280;42530;52.240;19.354;2022-08-18T11:43:15;53063.28;;;-144.69;26.29
56658;BME280;42530;52.240;19.354;2022-08-18T11:58:45;52977.97;;;-144.69;26.23
56658;BME280;42530;52.240;19.354;2022-08-18T12:06:53;53044.56;;;-144.69;26.35
56658;BME280;42530;52.240;19.354;2022-08-18T12:12:19;53086.16;;;-144.69;25.04
56658;BME280;42530;52.240;19.354;2022-08-18T12:14:56;53002.94;;;-144.69;25.25
56658;BME280;42530;52.240;19.354;2022-08-18T12:17:22;53032.06;;;-144.69;26.02
56658;BME280;42530;52.240;19.354;2022-08-18T12:19:48;53048.72;;;-144.69;25.32
56658;BME280;42530;52.240;19.354;2022-08-18T12:22:20;53059.13;;;-144.69;24.15
56658;BME280;42530;52.240;19.354;2022-08-18T12:24:46;53050.78;;;-144.69;24.23
56658;BME280;42530;52.240;19.354;2022-08-18T12:27:14;52990.47;;;-144.69;23.91
56658;BME280;42530;52.240;19.354;2022-08-18T12:29:40;52988.38;;;-144.69;24.78
56658;BME280;42530;52.240;19.354;2022-08-18T12:32:06;52988.38;;;-144.69;24.77
56658;BME280;42530;52.240;19.354;2022-08-18T12:34:32;53075.75;;;-144.69;24.70
56658;BME280;42530;52.240;19.354;2022-08-18T12:36:58;53044.56;;;-144.69;24.58
56658;BME280;42530;52.240;19.354;2022-08-18T12:39:30;53048.72;;;-144.69;24.03
56658;BME280;42530;52.240;19.354;2022-08-18T12:41:57;53052.88;;;-144.69;25.22
56658;BME280;42530;52.240;19.354;2022-08-18T12:44:23;53036.22;;;-144.69;25.08
56658;BME280;42530;52.240;19.354;2022-08-18T12:46:49;53019.59;;;-144.69;23.75
56658;BME280;42530;52.240;19.354;2022-08-18T12:49:17;53032.06;;;-144.69;23.45
56658;BME280;42530;52.240;19.354;2022-08-18T12:51:44;53032.06;;;-144.69;23.54
56658;BME280;42530;52.240;19.354;2022-08-18T12:54:09;52998.78;;;-144.69;23.66
56658;BME280;42530;52.240;19.354;2022-08-18T12:56:35;53032.06;;;-144.69;23.50
56658;BME280;42530;52.240;19.354;2022-08-18T12:59:03;53040.41;;;-144.69;23.25
56658;BME280;42530;52.240;19.354;2022-08-18T13:01:29;53030.00;;;-144.69;22.93
56658;BME280;42530;52.240;19.354;2022-08-18T13:03:55;53000.88;;;-144.69;22.92
56658;BME280;42530;52.240;19.354;2022-08-18T13:06:22;53013.34;;;-144.69;23.25
56658;BME280;42530;52.240;19.354;2022-08-18T13:08:49;53023.75;;;-144.69;23.10
56658;BME280;42530;52.240;19.354;2022-08-18T13:11:15;53027.91;;;-144.69;23.32
56658;BME280;42530;52.240;19.354;2022-08-18T13:13:41;53015.44;;;-144.69;23.84
56658;BME280;42530;52.240;19.354;2022-08-18T13:16:07;53036.22;;;-144.69;23.96
56658;BME280;42530;52.240;19.354;2022-08-18T13:18:36;53036.22;;;-144.69;23.08
56658;BME280;42530;52.240;19.354;2022-08-18T13:21:02;53032.06;;;-144.69;23.01
56658;BME280;42530;52.240;19.354;2022-08-18T13:23:29;53027.91;;;-144.69;22.89
56658;BME280;42530;52.240;19.354;2022-08-18T13:25:58;53015.44;;;-144.69;22.17
56658;BME280;42530;52.240;19.354;2022-08-18T13:28:25;52998.78;;;-144.69;22.14
56658;BME280;42530;52.240;19.354;2022-08-18T13:30:50;52982.16;;;-144.69;22.40
56658;BME280;42530;52.240;19.354;2022-08-18T13:33:18;52988.38;;;-144.69;21.73
56658;BME280;42530;52.240;19.354;2022-08-18T13:35:44;52998.78;;;-144.69;22.05
56658;BME280;42530;52.240;19.354;2022-08-18T13:38:12;52990.47;;;-144.69;21.80
56658;BME280;42530;52.240;19.354;2022-08-18T13:40:38;53009.19;;;-144.69;21.59
56658;BME280;42530;52.240;19.354;2022-08-18T13:43:04;52998.78;;;-144.69;22.52
56658;BME280;42530;52.240;19.354;2022-08-18T13:45:29;52998.78;;;-144.69;22.78
56658;BME280;42530;52.240;19.354;2022-08-18T13:47:55;53000.88;;;-144.69;23.43
56658;BME280;42530;52.240;19.354;2022-08-18T13:50:20;52990.47;;;-144.69;23.41
56658;BME280;42530;52.240;19.354;2022-08-18T13:52:47;53000.88;;;-144.69;23.15
56658;BME280;42530;52.240;19.354;2022-08-18T13:55:16;52971.75;;;-144.69;22.24
56658;BME280;42530;52.240;19.354;2022-08-18T13:57:42;52969.66;;;-144.69;21.93
56658;BME280;42530;52.240;19.354;2022-08-18T14:00:19;52975.91;;;-144.69;22.09
56658;BME280;42530;52.240;19.354;2022-08-18T14:02:48;52973.81;;;-144.69;21.86
56658;BME280;42530;52.240;19.354;2022-08-18T14:05:18;52990.47;;;-144.69;22.82
56658;BME280;42530;52.240;19.354;2022-08-18T14:07:44;52967.59;;;-144.69;22.14
56658;BME280;42530;52.240;19.354;2022-08-18T14:10:10;52973.81;;;-144.69;21.85
56658;BME280;42530;52.240;19.354;2022-08-18T14:12:38;52946.78;;;-144.69;21.04
56658;BME280;42530;52.240;19.354;2022-08-18T14:15:08;52946.78;;;-144.69;20.83
56658;BME280;42530;52.240;19.354;2022-08-18T14:17:34;52984.22;;;-144.69;21.61
56658;BME280;42530;52.240;19.354;2022-08-18T14:20:01;52975.91;;;-144.69;21.57
56658;BME280;42530;52.240;19.354;2022-08-18T14:22:45;52969.66;;;-144.69;21.21
56658;BME280;42530;52.240;19.354;2022-08-18T14:25:29;52957.19;;;-144.69;21.51
56658;BME280;42530;52.240;19.354;2022-08-18T14:28:13;52973.81;;;-144.69;21.18
56658;BME280;42530;52.240;19.354;2022-08-18T14:30:41;52957.19;;;-144.69;22.22
56658;BME280;42530;52.240;19.354;2022-08-18T14:33:07;52944.69;;;-144.69;21.65
56658;BME280;42530;52.240;19.354;2022-08-18T14:35:34;52963.41;;;-144.69;21.18
56658;BME280;42530;52.240;19.354;2022-08-18T14:38:00;52946.78;;;-144.69;20.57
56658;BME280;42530;52.240;19.354;2022-08-18T14:40:27;52942.63;;;-144.69;21.44
56658;BME280;42530;52.240;19.354;2022-08-18T14:42:53;52961.34;;;-144.69;20.13
56658;BME280;42530;52.240;19.354;2022-08-18T14:45:18;52946.78;;;-144.69;20.46
56658;BME280;42530;52.240;19.354;2022-08-18T14:47:44;52977.97;;;-144.69;20.73
56658;BME280;42530;52.240;19.354;2022-08-18T14:50:10;52953.00;;;-144.69;21.53
56658;BME280;42530;52.240;19.354;2022-08-18T14:52:40;52973.81;;;-144.69;21.77
56658;BME280;42530;52.240;19.354;2022-08-18T14:55:08;52955.09;;;-144.69;21.21
56658;BME280;42530;52.240;19.354;2022-08-18T14:57:37;52953.00;;;-144.69;21.44
56658;BME280;42530;52.240;19.354;2022-08-18T15:00:09;52928.06;;;-144.69;21.79
56658;BME280;42530;52.240;19.354;2022-08-18T15:02:38;52886.44;;;-144.69;22.63
56658;BME280;42530;52.240;19.354;2022-08-18T15:05:04;52944.69;;;-144.69;24.81
56658;BME280;42530;52.240;19.354;2022-08-18T15:07:30;52953.00;;;-144.69;26.29
56658;BME280;42530;52.240;19.354;2022-08-18T15:09:56;52948.84;;;-144.69;26.48